Time;durP1;ratioP1;P1;durP2;ratioP2;P2;SDS_P1;SDS_P2;PMS_P1;PMS_P2;Temp;Humidity;BMP_temperature;BMP_pressure;BME280_temperature;BME280_humidity;BME280_pressure;Samples;Min_cycle;Max_cycle;Signal;HPM_P1;HPM_P2
2021/03/04 00:00:28;;;;;;;139.10;29.80;;;2.60;99.90;;;;;;4861152;29;20025;-92
2021/03/04 00:02:54;;;;;;;147.25;29.05;;;2.60;99.90;;;;;;4863018;29;20040;-92
2021/03/04 00:05:20;;;;;;;138.90;30.90;;;2.60;99.90;;;;;;4861836;29;20033;-92
2021/03/04 00:07:46;;;;;;;122.47;27.88;;;2.60;99.90;;;;;;4861478;29;20029;-92
2021/03/04 00:10:13;;;;;;;132.13;29.15;;;2.60;99.90;;;;;;4859253;29;20407;-92
2021/03/04 00:12:39;;;;;;;124.03;27.25;;;2.60;99.90;;;;;;4859962;29;20029;-93
2021/03/04 00:15:07;;;;;;;127.60;27.55;;;2.60;99.90;;;;;;4862663;29;20028;-92
2021/03/04 00:17:33;;;;;;;127.15;26.40;;;2.60;99.90;;;;;;4862030;29;20033;-92
2021/03/04 00:19:59;;;;;;;120.53;28.10;;;2.60;99.90;;;;;;4879082;29;20029;-92
2021/03/04 00:22:25;;;;;;;127.78;27.00;;;2.60;99.90;;;;;;4862730;29;20044;-92
2021/03/04 00:24:51;;;;;;;123.63;28.15;;;2.60;99.90;;;;;;4862590;29;20032;-92
2021/03/04 00:27:16;;;;;;;114.53;26.40;;;2.70;99.90;;;;;;4862443;29;20430;-92
2021/03/04 00:29:42;;;;;;;116.25;26.00;;;2.60;99.90;;;;;;4862300;29;20029;-92
2021/03/04 00:32:08;;;;;;;113.97;25.83;;;2.60;99.90;;;;;;4862103;29;20085;-92
2021/03/04 00:34:34;;;;;;;120.03;26.80;;;2.60;99.90;;;;;;4861977;29;20032;-91
2021/03/04 00:37:00;;;;;;;120.10;25.73;;;2.60;99.90;;;;;;4862027;29;20036;-92
2021/03/04 00:39:25;;;;;;;108.78;27.98;;;2.70;99.90;;;;;;4862005;29;20025;-92
2021/03/04 00:41:51;;;;;;;103.22;23.77;;;2.70;99.90;;;;;;4862121;29;20064;-92
2021/03/04 00:44:17;;;;;;;116.22;24.80;;;2.70;99.90;;;;;;4862444;29;20044;-92
2021/03/04 00:46:43;;;;;;;107.43;23.38;;;2.70;99.90;;;;;;4862288;29;20044;-91
2021/03/04 00:49:08;;;;;;;108.03;26.50;;;2.70;99.90;;;;;;4862161;29;20032;-92
2021/03/04 00:51:34;;;;;;;112.05;24.45;;;2.70;99.90;;;;;;4865465;29;20037;-92
2021/03/04 00:54:00;;;;;;;115.95;29.38;;;2.80;99.90;;;;;;4865190;29;20028;-92
2021/03/04 00:56:26;;;;;;;105.38;23.90;;;2.80;99.90;;;;;;4864424;29;20041;-92
2021/03/04 00:58:51;;;;;;;113.55;24.90;;;2.80;99.90;;;;;;4880599;29;20034;-91
2021/03/04 01:01:18;;;;;;;103.28;24.95;;;2.80;99.90;;;;;;4862169;29;20033;-93
2021/03/04 01:03:44;;;;;;;119.35;26.27;;;2.80;99.90;;;;;;4862799;29;20035;-92
2021/03/04 01:06:14;;;;;;;120.63;25.42;;;2.80;99.90;;;;;;4869435;29;20531;-92
2021/03/04 01:08:40;;;;;;;118.80;24.90;;;2.80;99.90;;;;;;4870685;29;20044;-91
2021/03/04 01:11:07;;;;;;;117.55;25.13;;;2.80;99.90;;;;;;4869830;29;20045;-91
2021/03/04 01:13:32;;;;;;;121.40;26.80;;;2.80;99.90;;;;;;4868139;29;20032;-92
2021/03/04 01:15:58;;;;;;;118.45;27.48;;;2.70;99.90;;;;;;4865827;29;20039;-92
2021/03/04 01:18:24;;;;;;;131.18;25.90;;;2.80;99.90;;;;;;4864695;29;20558;-91
2021/03/04 01:20:50;;;;;;;111.10;26.42;;;2.80;99.90;;;;;;4864536;29;20054;-92
2021/03/04 01:23:15;;;;;;;141.18;26.90;;;2.70;99.90;;;;;;4864112;29;20475;-92
2021/03/04 01:25:41;;;;;;;122.13;26.80;;;2.70;99.90;;;;;;4864498;29;20029;-92
2021/03/04 01:28:07;;;;;;;109.50;26.88;;;2.80;99.90;;;;;;4865188;29;20100;-91
2021/03/04 01:30:33;;;;;;;93.20;22.10;;;2.70;99.90;;;;;;4864862;29;20044;-92
2021/03/04 01:32:59;;;;;;;76.57;20.20;;;2.70;99.90;;;;;;4864592;29;20028;-92
2021/03/04 01:35:25;;;;;;;90.40;21.13;;;2.80;99.90;;;;;;4864183;29;20036;-92
2021/03/04 01:37:52;;;;;;;77.20;20.13;;;2.80;99.90;;;;;;4863502;29;20127;-92
2021/03/04 01:40:21;;;;;;;84.25;20.73;;;2.80;99.90;;;;;;4864018;29;20025;-92
2021/03/04 01:42:48;;;;;;;78.10;20.55;;;2.80;99.90;;;;;;4863401;29;20495;-91
2021/03/04 01:45:13;;;;;;;80.95;20.50;;;2.80;99.90;;;;;;4864650;29;20047;-90
2021/03/04 01:47:42;;;;;;;76.22;20.73;;;2.80;99.90;;;;;;4865076;29;20021;-92
2021/03/04 01:50:09;;;;;;;73.03;19.52;;;2.80;99.90;;;;;;4861820;29;20127;-91
2021/03/04 01:52:35;;;;;;;71.50;19.13;;;2.80;99.90;;;;;;4862977;29;20145;-92
2021/03/04 01:55:04;;;;;;;70.43;18.48;;;2.80;99.90;;;;;;4881026;29;20036;-92
2021/03/04 01:57:31;;;;;;;76.93;20.25;;;2.90;99.90;;;;;;4866897;29;20033;-93
2021/03/04 01:59:58;;;;;;;76.43;20.42;;;2.90;99.90;;;;;;4867356;29;20026;-91
2021/03/04 02:02:25;;;;;;;73.13;19.23;;;2.90;99.90;;;;;;4867357;29;20497;-93
2021/03/04 02:04:52;;;;;;;78.13;20.15;;;2.90;99.90;;;;;;4866906;29;20040;-92
2021/03/04 02:07:42;;;;;;;82.28;20.55;;;2.90;99.90;;;;;;4867223;29;20021;-92
2021/03/04 02:10:29;;;;;;;81.30;20.95;;;2.90;99.90;;;;;;4884915;29;20077;-93
2021/03/04 02:13:33;;;;;;;73.90;21.13;;;2.90;99.90;;;;;;4864310;29;20040;-92
2021/03/04 02:16:09;;;;;;;83.78;22.35;;;2.90;99.90;;;;;;4880963;29;20066;-92
2021/03/04 02:18:39;;;;;;;76.82;20.35;;;2.90;99.90;;;;;;4862720;29;20060;-92
2021/03/04 02:21:59;;;;;;;77.50;21.13;;;2.80;99.90;;;;;;4864131;29;20037;-93
2021/03/04 02:25:06;;;;;;;78.13;20.48;;;2.90;99.90;;;;;;4764089;30;20068;-92
2021/03/04 02:27:34;;;;;;;72.90;20.88;;;2.90;99.90;;;;;;4780232;30;20032;-92
2021/03/04 02:30:02;;;;;;;74.45;21.15;;;2.90;99.90;;;;;;4779798;30;20110;-92
2021/03/04 02:32:30;;;;;;;70.63;20.58;;;2.90;99.90;;;;;;4763139;30;20502;-92
2021/03/04 02:35:19;;;;;;;72.88;21.17;;;2.90;99.90;;;;;;4761642;30;20144;-92
2021/03/04 02:37:51;;;;;;;73.03;19.85;;;2.90;99.90;;;;;;4780785;29;20043;-91
2021/03/04 02:40:20;;;;;;;74.82;22.33;;;2.90;99.90;;;;;;4777362;30;20027;-92
2021/03/04 02:42:48;;;;;;;74.57;22.73;;;2.90;99.90;;;;;;4778278;30;20036;-93
2021/03/04 02:45:16;;;;;;;74.00;20.70;;;2.90;99.90;;;;;;4780255;30;20032;-92
2021/03/04 02:47:43;;;;;;;77.45;22.52;;;2.80;99.90;;;;;;4778643;30;20032;-93
2021/03/04 02:50:10;;;;;;;65.35;21.98;;;2.90;99.90;;;;;;4777343;30;20085;-92
2021/03/04 02:52:36;;;;;;;75.78;20.98;;;2.90;99.90;;;;;;4778887;30;20130;-93
2021/03/04 02:55:05;;;;;;;77.70;24.95;;;2.90;99.90;;;;;;4777299;30;20641;-93
2021/03/04 02:57:32;;;;;;;82.75;23.40;;;2.90;99.90;;;;;;4786649;29;20042;-92
2021/03/04 03:00:00;;;;;;;86.85;23.38;;;2.90;99.90;;;;;;4860535;29;20030;-92
2021/03/04 03:02:28;;;;;;;89.88;25.90;;;2.90;99.90;;;;;;4860459;29;20033;-92
2021/03/04 03:04:56;;;;;;;71.05;21.58;;;2.90;99.90;;;;;;4860356;29;20197;-91
2021/03/04 03:07:23;;;;;;;86.97;24.73;;;2.90;99.90;;;;;;4859749;29;20026;-93
2021/03/04 03:09:48;;;;;;;89.72;24.83;;;2.90;99.90;;;;;;4861380;29;20025;-92
2021/03/04 03:12:16;;;;;;;96.90;27.27;;;2.90;99.90;;;;;;4859701;29;20032;-92
2021/03/04 03:14:43;;;;;;;69.35;21.92;;;2.90;99.90;;;;;;4860244;29;20028;-92
2021/03/04 03:17:09;;;;;;;75.97;23.30;;;2.90;99.90;;;;;;4861069;29;20105;-91
2021/03/04 03:19:35;;;;;;;69.45;22.27;;;2.90;99.90;;;;;;4861437;29;20029;-92
2021/03/04 03:22:01;;;;;;;62.15;19.92;;;2.90;99.90;;;;;;4861017;29;20029;-91
2021/03/04 03:24:27;;;;;;;69.38;21.23;;;2.90;99.90;;;;;;4860321;29;20058;-92
2021/03/04 03:26:53;;;;;;;67.20;21.92;;;2.90;99.90;;;;;;4859766;29;20119;-92
2021/03/04 03:29:19;;;;;;;63.83;19.83;;;2.90;99.90;;;;;;4859908;29;20053;-91
2021/03/04 03:31:49;;;;;;;60.65;18.65;;;2.90;99.90;;;;;;4859822;29;20068;-92
2021/03/04 03:34:15;;;;;;;64.55;19.88;;;2.90;99.90;;;;;;4859745;29;20420;-91
2021/03/04 03:36:41;;;;;;;55.67;18.40;;;2.90;99.90;;;;;;4859908;29;20064;-92
2021/03/04 03:39:08;;;;;;;55.10;17.75;;;2.90;99.90;;;;;;4859667;29;20109;-92
2021/03/04 03:41:35;;;;;;;46.78;15.20;;;2.90;99.90;;;;;;4859780;29;20068;-92
2021/03/04 03:44:01;;;;;;;46.03;15.75;;;2.90;99.90;;;;;;4859252;29;20021;-91
2021/03/04 03:46:31;;;;;;;48.45;16.95;;;2.90;99.90;;;;;;4860865;29;20028;-92
2021/03/04 03:48:58;;;;;;;50.78;16.52;;;2.90;99.90;;;;;;4861087;29;20025;-92
2021/03/04 03:51:25;;;;;;;40.47;14.27;;;2.90;99.90;;;;;;4859436;29;20052;-91
2021/03/04 03:53:51;;;;;;;41.38;13.45;;;2.90;99.90;;;;;;4859344;29;20022;-92
2021/03/04 03:56:20;;;;;;;43.60;13.68;;;2.90;99.90;;;;;;4865091;29;20081;-91
2021/03/04 03:58:46;;;;;;;36.97;13.73;;;2.90;99.90;;;;;;4866288;29;20033;-91
2021/03/04 04:01:13;;;;;;;37.72;13.48;;;2.90;99.90;;;;;;4864670;29;20040;-90
2021/03/04 04:03:39;;;;;;;42.10;13.73;;;2.90;99.90;;;;;;4863700;29;20026;-90
2021/03/04 04:06:07;;;;;;;44.53;14.13;;;2.90;99.90;;;;;;4863089;29;20106;-91
2021/03/04 04:08:33;;;;;;;40.40;13.63;;;2.90;99.90;;;;;;4860158;29;20029;-91
2021/03/04 04:10:59;;;;;;;45.72;15.13;;;2.90;99.90;;;;;;4860285;29;20120;-91
2021/03/04 04:13:25;;;;;;;39.40;13.73;;;2.90;99.90;;;;;;4860031;29;20106;-91
2021/03/04 04:15:51;;;;;;;40.35;14.10;;;2.90;99.90;;;;;;4859613;29;20235;-91
2021/03/04 04:18:18;;;;;;;39.30;14.82;;;2.90;99.90;;;;;;4859743;29;20029;-91
2021/03/04 04:20:45;;;;;;;44.30;14.77;;;2.90;99.90;;;;;;4859281;29;20635;-92
2021/03/04 04:23:11;;;;;;;40.80;13.93;;;2.90;99.90;;;;;;4858442;29;20671;-91
2021/03/04 04:25:47;;;;;;;50.00;16.38;;;3.00;99.90;;;;;;4859092;29;20376;-92
2021/03/04 04:28:12;;;;;;;40.65;14.32;;;2.90;99.90;;;;;;4858902;29;20506;-92
2021/03/04 04:30:38;;;;;;;42.40;14.57;;;3.00;99.90;;;;;;4859472;29;20033;-92
2021/03/04 04:33:03;;;;;;;43.60;14.77;;;2.90;99.90;;;;;;4860517;29;20029;-92
2021/03/04 04:35:29;;;;;;;37.75;13.52;;;2.90;99.90;;;;;;4860370;29;20025;-92
2021/03/04 04:37:55;;;;;;;38.53;14.20;;;2.90;99.90;;;;;;4858763;29;20067;-92
2021/03/04 04:40:20;;;;;;;37.88;12.82;;;3.00;99.90;;;;;;4859925;29;20028;-91
2021/03/04 04:42:46;;;;;;;44.03;14.63;;;3.00;99.90;;;;;;4858582;29;20034;-92
2021/03/04 04:45:12;;;;;;;41.75;14.02;;;3.00;99.90;;;;;;4858445;29;20050;-92
2021/03/04 04:47:38;;;;;;;36.90;12.65;;;2.90;99.90;;;;;;4858602;29;20033;-92
2021/03/04 04:50:05;;;;;;;37.20;12.68;;;2.90;99.90;;;;;;4859150;29;20112;-91
2021/03/04 04:52:30;;;;;;;36.80;12.90;;;2.90;99.90;;;;;;4858335;29;20034;-93
2021/03/04 04:54:56;;;;;;;38.83;12.73;;;2.90;99.90;;;;;;4858454;29;20032;-91
2021/03/04 04:57:22;;;;;;;32.65;12.05;;;2.90;99.90;;;;;;4856768;29;20361;-92
2021/03/04 04:59:48;;;;;;;35.35;13.05;;;2.90;99.90;;;;;;4857912;29;20034;-91
2021/03/04 05:02:14;;;;;;;33.05;12.60;;;3.00;99.90;;;;;;4859298;29;20086;-92
2021/03/04 05:04:40;;;;;;;33.58;11.98;;;3.00;99.90;;;;;;4859041;29;20018;-92
2021/03/04 05:07:05;;;;;;;32.13;12.65;;;3.00;99.90;;;;;;4858663;29;20037;-91
2021/03/04 05:09:31;;;;;;;27.13;12.18;;;3.00;99.90;;;;;;4858940;29;20029;-92
2021/03/04 05:11:57;;;;;;;32.13;12.48;;;3.00;99.90;;;;;;4858460;29;20134;-91
2021/03/04 05:14:22;;;;;;;32.17;11.95;;;3.00;99.90;;;;;;4858173;29;20100;-91
2021/03/04 05:16:48;;;;;;;34.88;12.48;;;3.00;99.90;;;;;;4858688;29;20124;-91
2021/03/04 05:19:14;;;;;;;31.85;12.05;;;3.00;99.90;;;;;;4858654;29;20033;-92
2021/03/04 05:21:39;;;;;;;27.10;11.57;;;3.00;99.90;;;;;;4858695;29;20037;-91
2021/03/04 05:24:05;;;;;;;26.88;10.52;;;3.00;99.90;;;;;;4858611;29;20051;-91
2021/03/04 05:26:31;;;;;;;27.83;11.27;;;3.00;99.90;;;;;;4858767;29;20531;-91
2021/03/04 05:28:57;;;;;;;23.55;9.80;;;3.00;99.90;;;;;;4859687;29;20033;-91
2021/03/04 05:31:22;;;;;;;21.73;8.85;;;3.00;99.90;;;;;;4858207;29;20136;-92
2021/03/04 05:33:48;;;;;;;18.88;7.32;;;3.00;99.90;;;;;;4858484;29;20026;-92
2021/03/04 05:36:14;;;;;;;24.80;9.93;;;3.00;99.90;;;;;;4859549;29;20068;-90
2021/03/04 05:38:39;;;;;;;20.13;8.32;;;3.00;99.90;;;;;;4861458;29;20042;-92
2021/03/04 05:41:08;;;;;;;22.00;9.30;;;3.00;99.90;;;;;;4861524;29;20041;-91
2021/03/04 05:43:36;;;;;;;21.98;8.60;;;3.00;99.90;;;;;;4862419;29;20025;-92
2021/03/04 05:46:03;;;;;;;20.17;8.80;;;3.00;99.90;;;;;;4861672;29;20128;-92
2021/03/04 05:48:29;;;;;;;27.25;9.38;;;3.00;99.90;;;;;;4862019;29;20034;-91
2021/03/04 05:50:57;;;;;;;28.30;11.23;;;3.00;99.90;;;;;;4860701;29;20042;-91
2021/03/04 05:53:23;;;;;;;26.33;10.90;;;3.00;99.90;;;;;;4861047;29;20032;-92
2021/03/04 05:55:49;;;;;;;26.60;10.73;;;3.00;99.90;;;;;;4861429;29;20060;-92
2021/03/04 05:58:15;;;;;;;26.77;10.25;;;3.00;99.90;;;;;;4861496;29;20049;-91
2021/03/04 06:00:42;;;;;;;30.20;11.38;;;3.00;99.90;;;;;;4861320;29;20081;-91
2021/03/04 06:03:09;;;;;;;28.92;11.68;;;3.00;99.90;;;;;;4860987;29;20475;-92
2021/03/04 06:05:35;;;;;;;29.08;11.98;;;3.00;99.90;;;;;;4861011;29;20037;-91
2021/03/04 06:08:06;;;;;;;26.98;10.85;;;2.90;99.90;;;;;;4861580;29;20084;-90
2021/03/04 06:10:32;;;;;;;29.25;11.73;;;3.00;99.90;;;;;;4858873;29;20025;-93
2021/03/04 06:12:59;;;;;;;24.65;10.43;;;3.00;99.90;;;;;;4862585;29;20040;-91
2021/03/04 06:15:26;;;;;;;27.38;10.77;;;3.00;99.90;;;;;;4865633;29;20030;-93
2021/03/04 06:17:57;;;;;;;21.90;9.63;;;3.00;99.90;;;;;;4869790;29;20034;-92
2021/03/04 06:20:34;;;;;;;19.45;8.27;;;3.00;99.90;;;;;;4860877;29;20025;-94
2021/03/04 06:23:00;;;;;;;20.20;9.65;;;3.00;99.90;;;;;;4860290;29;20064;-92
2021/03/04 06:25:28;;;;;;;17.23;8.27;;;3.00;99.90;;;;;;4860645;29;20451;-91
2021/03/04 06:27:54;;;;;;;22.45;10.48;;;3.00;99.90;;;;;;4859527;29;20499;-92
2021/03/04 06:30:20;;;;;;;22.33;9.60;;;3.00;99.90;;;;;;4858770;29;20028;-90
2021/03/04 06:32:57;;;;;;;22.52;9.30;;;3.00;99.90;;;;;;4858573;29;20025;-92
2021/03/04 06:35:28;;;;;;;21.85;8.77;;;3.00;99.90;;;;;;4859263;29;20026;-92
2021/03/04 06:37:55;;;;;;;21.33;9.60;;;3.00;99.90;;;;;;4856705;29;20496;-92
2021/03/04 06:40:22;;;;;;;25.63;8.98;;;3.00;99.90;;;;;;4858003;29;20495;-89
2021/03/04 06:42:49;;;;;;;24.88;9.65;;;3.00;99.90;;;;;;4858584;29;20056;-92
2021/03/04 06:45:37;;;;;;;21.17;9.23;;;3.00;99.90;;;;;;4859299;29;20033;-91
2021/03/04 06:48:14;;;;;;;21.88;8.48;;;3.00;99.90;;;;;;4858331;29;20025;-91
2021/03/04 06:50:42;;;;;;;20.55;8.93;;;3.00;99.90;;;;;;4862468;29;20096;-90
2021/03/04 06:53:12;;;;;;;19.38;7.93;;;3.00;99.90;;;;;;4863153;29;20500;-92
2021/03/04 06:56:10;;;;;;;18.42;8.13;;;3.00;99.90;;;;;;4858917;29;20051;-91
2021/03/04 06:58:37;;;;;;;21.45;8.27;;;3.00;99.90;;;;;;4828152;29;20042;-90
2021/03/04 07:01:07;;;;;;;23.23;9.77;;;3.00;99.90;;;;;;4858457;29;20547;-90
2021/03/04 07:03:47;;;;;;;23.55;9.68;;;3.00;99.90;;;;;;4860219;29;20096;-91
2021/03/04 07:06:14;;;;;;;24.63;11.15;;;3.00;99.90;;;;;;4858533;29;20034;-91
2021/03/04 07:08:42;;;;;;;25.02;10.20;;;3.00;99.90;;;;;;4860605;29;20053;-91
2021/03/04 07:11:11;;;;;;;27.50;11.05;;;3.00;99.90;;;;;;4857146;29;20042;-92
2021/03/04 07:13:38;;;;;;;27.48;11.50;;;3.00;99.90;;;;;;4858621;29;20029;-90
2021/03/04 07:16:09;;;;;;;24.88;9.50;;;3.00;99.90;;;;;;4856976;29;20542;-91
2021/03/04 07:18:44;;;;;;;23.52;10.32;;;3.00;99.90;;;;;;4860240;29;20029;-91
2021/03/04 07:21:15;;;;;;;25.20;11.20;;;3.00;99.90;;;;;;4857426;29;20041;-91
2021/03/04 07:23:43;;;;;;;23.13;10.23;;;3.10;99.90;;;;;;4859700;29;20089;-92
2021/03/04 07:26:10;;;;;;;24.85;10.50;;;3.10;99.90;;;;;;4859591;29;20036;-92
2021/03/04 07:28:43;;;;;;;21.70;9.07;;;3.10;99.90;;;;;;4861761;29;20021;-90
2021/03/04 07:31:27;;;;;;;19.23;8.43;;;3.10;99.90;;;;;;4861015;29;20129;-92
2021/03/04 07:33:56;;;;;;;18.73;8.30;;;3.10;99.90;;;;;;4862728;29;20037;-90
2021/03/04 07:36:30;;;;;;;20.33;8.50;;;3.10;99.90;;;;;;4860500;29;20041;-92
2021/03/04 07:39:06;;;;;;;21.00;9.35;;;3.10;99.90;;;;;;4855317;29;20510;-92
2021/03/04 07:41:57;;;;;;;19.55;9.13;;;3.10;99.90;;;;;;4859195;29;20057;-92
2021/03/04 07:44:34;;;;;;;21.98;9.30;;;3.20;99.90;;;;;;4854899;29;20044;-93
2021/03/04 07:47:02;;;;;;;19.40;8.77;;;3.20;99.90;;;;;;4856505;29;20048;-92
2021/03/04 07:49:29;;;;;;;21.42;9.75;;;3.20;99.90;;;;;;4859145;29;20506;-91
2021/03/04 07:52:06;;;;;;;19.13;9.27;;;3.20;99.90;;;;;;4856977;29;20054;-92
2021/03/04 07:54:33;;;;;;;19.17;9.18;;;3.20;99.90;;;;;;4859962;29;20499;-92
2021/03/04 07:57:10;;;;;;;20.60;9.25;;;3.20;99.90;;;;;;4857566;29;20022;-93
2021/03/04 07:59:48;;;;;;;23.02;9.88;;;3.20;99.90;;;;;;4857121;29;20094;-92
2021/03/04 08:02:27;;;;;;;18.42;8.68;;;3.20;99.90;;;;;;4862060;29;20045;-92
2021/03/04 08:05:17;;;;;;;19.33;8.57;;;3.30;99.90;;;;;;4860186;29;20026;-93
2021/03/04 08:07:48;;;;;;;16.42;7.50;;;3.20;99.90;;;;;;4857806;29;20045;-93
2021/03/04 08:10:22;;;;;;;15.43;7.47;;;3.30;99.90;;;;;;4859172;29;20093;-92
2021/03/04 08:12:49;;;;;;;13.40;7.03;;;3.20;99.90;;;;;;4862183;29;20483;-91
2021/03/04 08:15:16;;;;;;;10.13;4.97;;;3.30;99.90;;;;;;4860734;29;20593;-92
2021/03/04 08:17:42;;;;;;;9.20;4.00;;;3.30;99.90;;;;;;4861343;29;20061;-92
2021/03/04 08:20:09;;;;;;;5.90;3.40;;;3.20;99.90;;;;;;4861230;29;20042;-92
2021/03/04 08:22:49;;;;;;;8.05;4.25;;;3.30;99.90;;;;;;4857342;29;20037;-93
2021/03/04 08:25:29;;;;;;;10.82;5.40;;;3.30;99.90;;;;;;4860027;29;20042;-92
2021/03/04 08:27:56;;;;;;;9.60;5.43;;;3.30;99.90;;;;;;4860548;29;20029;-91
2021/03/04 08:30:35;;;;;;;10.80;5.60;;;3.30;99.90;;;;;;4861579;29;20030;-90
2021/03/04 08:33:14;;;;;;;11.35;5.25;;;3.30;99.90;;;;;;4863913;29;20026;-92
2021/03/04 08:35:45;;;;;;;9.18;5.30;;;3.30;99.90;;;;;;4858125;29;20028;-94
2021/03/04 08:38:19;;;;;;;10.93;5.93;;;3.40;99.90;;;;;;4859034;29;20094;-92
2021/03/04 08:40:55;;;;;;;10.88;6.57;;;3.40;99.90;;;;;;4848771;29;20045;-91
2021/03/04 08:43:22;;;;;;;11.90;5.65;;;3.50;99.90;;;;;;4862328;29;20036;-91
2021/03/04 08:46:01;;;;;;;11.90;5.32;;;3.50;99.90;;;;;;4861226;29;20475;-89
2021/03/04 08:48:27;;;;;;;10.13;5.47;;;3.50;99.90;;;;;;4857764;29;20044;-90
2021/03/04 08:50:58;;;;;;;13.63;5.78;;;3.60;99.90;;;;;;4858760;29;20040;-92
2021/03/04 08:53:28;;;;;;;;;;;3.60;99.90;;;;;;4844882;29;20114;-91
2021/03/04 08:55:55;;;;;;;11.77;5.18;;;3.70;99.90;;;;;;4864699;29;19912;-93
2021/03/04 08:58:24;;;;;;;12.60;5.65;;;3.70;99.90;;;;;;4860414;29;20025;-91
2021/03/04 09:00:52;;;;;;;13.07;6.00;;;3.80;99.90;;;;;;4854417;29;20025;-92
2021/03/04 09:03:18;;;;;;;13.10;6.68;;;3.80;99.90;;;;;;4861157;29;20037;-91
2021/03/04 09:05:44;;;;;;;9.98;5.20;;;3.90;99.90;;;;;;4867343;29;20037;-91
2021/03/04 09:08:14;;;;;;;12.02;6.20;;;3.90;99.90;;;;;;4858444;29;20025;-93
2021/03/04 09:10:47;;;;;;;13.27;6.32;;;4.00;99.90;;;;;;4860995;29;20033;-92
2021/03/04 09:13:24;;;;;;;12.10;6.43;;;4.00;99.90;;;;;;4863219;29;20029;-93
2021/03/04 09:15:53;;;;;;;13.93;6.97;;;4.10;99.90;;;;;;4862347;29;20028;-93
2021/03/04 09:18:19;;;;;;;15.48;7.03;;;4.10;99.90;;;;;;4865641;29;20040;-93
2021/03/04 09:20:47;;;;;;;17.02;7.10;;;4.10;99.90;;;;;;4865103;29;20040;-93
2021/03/04 09:23:13;;;;;;;15.18;8.30;;;4.10;99.90;;;;;;4866846;29;20117;-92
2021/03/04 09:25:39;;;;;;;14.43;7.20;;;4.10;99.90;;;;;;4866210;29;20021;-92
2021/03/04 09:28:11;;;;;;;15.75;7.93;;;4.20;99.90;;;;;;4862179;29;20124;-93
2021/03/04 09:30:38;;;;;;;16.10;7.78;;;4.10;99.90;;;;;;4863260;29;20044;-93
2021/03/04 09:33:14;;;;;;;16.25;7.90;;;4.10;99.90;;;;;;4860618;29;20398;-93
2021/03/04 09:35:50;;;;;;;14.43;8.13;;;4.10;99.90;;;;;;4864563;29;20021;-93
2021/03/04 09:38:17;;;;;;;15.13;7.47;;;4.10;99.90;;;;;;4864982;29;20128;-93
2021/03/04 09:40:43;;;;;;;16.48;8.32;;;4.20;99.90;;;;;;4866346;29;20093;-94
2021/03/04 09:43:19;;;;;;;16.58;9.27;;;4.20;99.90;;;;;;4865201;29;20026;-93
2021/03/04 09:45:48;;;;;;;18.70;8.70;;;4.30;99.90;;;;;;4864256;29;20041;-94
2021/03/04 09:48:14;;;;;;;20.25;9.77;;;4.30;99.90;;;;;;4865658;29;20051;-93
2021/03/04 09:50:52;;;;;;;17.83;9.07;;;4.30;99.90;;;;;;4870145;29;20029;-93
2021/03/04 09:53:18;;;;;;;15.95;9.00;;;4.40;99.90;;;;;;4873041;29;20033;-91
2021/03/04 09:55:45;;;;;;;19.42;8.98;;;4.40;99.90;;;;;;4870274;29;20033;-88
2021/03/04 09:58:27;;;;;;;20.42;10.10;;;4.50;99.90;;;;;;4886535;29;20121;-92
2021/03/04 10:01:02;;;;;;;20.45;9.70;;;4.70;99.90;;;;;;4867770;29;20063;-92
2021/03/04 10:03:40;;;;;;;19.38;8.93;;;5.00;99.90;;;;;;4883149;29;20049;-92
2021/03/04 10:06:18;;;;;;;14.25;8.32;;;5.20;99.90;;;;;;4866469;29;20032;-92
2021/03/04 10:08:44;;;;;;;14.52;7.55;;;5.40;99.90;;;;;;4844091;29;20029;-92
2021/03/04 10:11:21;;;;;;;14.70;7.65;;;5.50;99.90;;;;;;4862379;29;20076;-92
2021/03/04 10:13:47;;;;;;;11.52;7.10;;;5.60;99.90;;;;;;4866361;29;20071;-92
2021/03/04 10:16:14;;;;;;;13.95;8.40;;;5.70;99.90;;;;;;4860156;29;20029;-92
2021/03/04 10:19:03;;;;;;;12.75;7.60;;;5.70;99.90;;;;;;4864794;29;20037;-93
2021/03/04 10:21:29;;;;;;;11.90;7.68;;;5.70;99.90;;;;;;4863900;29;20157;-93
2021/03/04 10:23:55;;;;;;;14.10;8.88;;;5.60;99.90;;;;;;4866972;29;20044;-94
2021/03/04 10:26:20;;;;;;;13.65;8.60;;;5.60;99.90;;;;;;4865814;29;20029;-93
2021/03/04 10:28:48;;;;;;;12.73;8.20;;;5.50;99.90;;;;;;4865304;29;20028;-92
2021/03/04 10:31:15;;;;;;;15.48;8.93;;;5.50;99.90;;;;;;4884126;29;20070;-93
2021/03/04 10:33:40;;;;;;;14.50;8.82;;;5.50;99.90;;;;;;4866711;29;20116;-92
2021/03/04 10:36:06;;;;;;;16.70;10.57;;;5.50;99.90;;;;;;4883595;29;20037;-93
2021/03/04 10:38:32;;;;;;;15.13;9.98;;;5.60;99.90;;;;;;4866755;29;20048;-93
2021/03/04 10:40:58;;;;;;;13.68;9.38;;;5.70;99.90;;;;;;4866646;29;20033;-94
2021/03/04 10:43:24;;;;;;;13.20;7.80;;;5.80;99.90;;;;;;4866933;29;20108;-93
2021/03/04 10:45:49;;;;;;;14.27;7.82;;;5.80;99.90;;;;;;4866155;29;20037;-92
2021/03/04 10:48:15;;;;;;;12.43;8.85;;;5.80;99.90;;;;;;4863146;29;20041;-91
2021/03/04 10:50:41;;;;;;;12.80;7.57;;;5.80;99.90;;;;;;4866990;29;20483;-92
2021/03/04 10:53:07;;;;;;;12.50;6.95;;;5.80;99.90;;;;;;4873880;29;20037;-92
2021/03/04 10:55:33;;;;;;;12.75;7.45;;;5.80;99.90;;;;;;4866965;29;20028;-92
2021/03/04 10:58:01;;;;;;;11.02;7.10;;;5.80;99.90;;;;;;4882929;29;20064;-91
2021/03/04 11:00:27;;;;;;;10.52;7.28;;;5.80;99.90;;;;;;4866188;29;20081;-92
2021/03/04 11:02:52;;;;;;;12.27;7.80;;;5.80;99.90;;;;;;4866548;29;20029;-92
2021/03/04 11:05:18;;;;;;;13.75;8.75;;;5.80;99.90;;;;;;4866744;29;20472;-92
2021/03/04 11:07:45;;;;;;;13.18;8.57;;;5.80;99.90;;;;;;4864144;29;20021;-90
2021/03/04 11:10:17;;;;;;;13.43;8.63;;;5.80;99.90;;;;;;4865522;29;20033;-92
2021/03/04 11:12:42;;;;;;;13.32;8.88;;;5.80;99.90;;;;;;4866668;29;20497;-92
2021/03/04 11:15:09;;;;;;;11.85;8.25;;;5.80;99.90;;;;;;4866243;29;20119;-92
2021/03/04 11:17:34;;;;;;;12.70;8.18;;;5.70;99.90;;;;;;4865461;29;20067;-92
2021/03/04 11:20:01;;;;;;;9.27;7.40;;;5.70;99.90;;;;;;4867322;29;20025;-90
2021/03/04 11:22:26;;;;;;;13.80;7.70;;;5.60;99.90;;;;;;4881979;29;20029;-93
2021/03/04 11:24:52;;;;;;;20.92;8.70;;;5.50;99.90;;;;;;4881461;29;20510;-92
2021/03/04 11:27:18;;;;;;;10.60;6.72;;;5.50;99.90;;;;;;4881794;29;20101;-93
2021/03/04 11:29:45;;;;;;;9.00;6.18;;;5.40;99.90;;;;;;4881365;29;20040;-92
2021/03/04 11:32:12;;;;;;;9.20;6.13;;;5.40;99.90;;;;;;4860004;29;20025;-91
2021/03/04 11:34:40;;;;;;;7.63;5.70;;;5.40;99.90;;;;;;4880970;29;20051;-92
2021/03/04 11:37:06;;;;;;;8.50;5.65;;;5.40;99.90;;;;;;4882500;29;20029;-92
2021/03/04 11:39:32;;;;;;;8.30;5.78;;;5.40;99.90;;;;;;4867626;29;20468;-92
2021/03/04 11:41:58;;;;;;;8.20;5.50;;;5.50;99.90;;;;;;4865504;29;20057;-93
2021/03/04 11:44:23;;;;;;;8.18;5.03;;;5.60;99.90;;;;;;4874213;29;20077;-91
2021/03/04 11:46:49;;;;;;;8.35;4.25;;;5.60;99.90;;;;;;4863900;29;20031;-91
2021/03/04 11:49:15;;;;;;;4.40;3.45;;;5.70;99.90;;;;;;4864004;29;20037;-91
2021/03/04 11:51:41;;;;;;;5.35;2.70;;;5.70;99.90;;;;;;4876843;29;20110;-93
2021/03/04 11:54:06;;;;;;;2.78;2.40;;;5.80;99.90;;;;;;4879103;29;20409;-91
2021/03/04 11:56:32;;;;;;;3.58;2.35;;;5.80;99.90;;;;;;4878950;29;20053;-92
2021/03/04 11:59:02;;;;;;;2.60;2.20;;;5.80;99.90;;;;;;4862977;29;20033;-93
2021/03/04 12:01:31;;;;;;;5.57;1.85;;;5.80;99.90;;;;;;4865788;29;20036;-91
2021/03/04 12:03:57;;;;;;;2.70;2.03;;;5.90;99.90;;;;;;4859423;29;20028;-92
2021/03/04 12:06:23;;;;;;;2.25;2.05;;;5.90;99.90;;;;;;4860879;29;20029;-92
2021/03/04 12:08:48;;;;;;;5.35;3.00;;;6.00;99.90;;;;;;4862335;29;20033;-91
2021/03/04 12:11:14;;;;;;;4.28;2.15;;;6.10;99.90;;;;;;4862695;29;20495;-91
2021/03/04 12:13:40;;;;;;;7.55;2.63;;;6.20;99.90;;;;;;4879799;29;20049;-92
2021/03/04 12:16:08;;;;;;;6.28;3.60;;;6.20;99.90;;;;;;4863211;29;20371;-93
2021/03/04 12:18:34;;;;;;;5.40;2.97;;;6.30;99.90;;;;;;4866558;29;20479;-94
2021/03/04 12:20:59;;;;;;;6.32;4.45;;;6.30;99.90;;;;;;4864469;29;20035;-95
2021/03/04 12:23:26;;;;;;;11.00;5.10;;;6.40;99.90;;;;;;4863738;29;20040;-92
2021/03/04 12:25:52;;;;;;;9.13;5.63;;;6.30;99.90;;;;;;4870063;29;20029;-93
2021/03/04 12:28:18;;;;;;;11.57;6.80;;;6.40;99.90;;;;;;4863687;29;21107;-93
2021/03/04 12:30:44;;;;;;;10.20;7.05;;;6.50;99.90;;;;;;4864188;29;20041;-93
2021/03/04 12:33:11;;;;;;;8.45;5.30;;;6.50;99.90;;;;;;4862350;29;20036;-93
2021/03/04 12:35:37;;;;;;;9.27;6.20;;;6.50;99.90;;;;;;4861639;29;20482;-92
2021/03/04 12:38:02;;;;;;;12.13;6.47;;;6.60;99.90;;;;;;4859638;29;20036;-90
2021/03/04 12:40:30;;;;;;;10.50;6.68;;;6.70;99.90;;;;;;4860453;29;20112;-93
2021/03/04 12:42:56;;;;;;;7.07;4.88;;;6.70;99.90;;;;;;4860261;29;20025;-93
2021/03/04 12:45:23;;;;;;;10.07;6.55;;;6.80;99.90;;;;;;4859859;29;20045;-90
2021/03/04 12:47:52;;;;;;;8.45;5.47;;;6.80;99.90;;;;;;4862213;29;20550;-91
2021/03/04 12:50:19;;;;;;;8.13;5.88;;;6.90;99.90;;;;;;4846783;29;20060;-90